createdAt,value
2022-11-28T00:01:46.334Z,99964.39
2022-11-28T00:04:15.049Z,99972.96
2022-11-28T00:06:49.403Z,99973.31
2022-11-28T00:09:20.184Z,99967.73
2022-11-28T00:11:49.491Z,99966.31
2022-11-28T00:14:19.267Z,99963.64
2022-11-28T00:16:47.942Z,99959.99
2022-11-28T00:19:16.218Z,99957.57
2022-11-28T00:21:44.477Z,99953.98
2022-11-28T00:24:12.937Z,99954.42
2022-11-28T00:26:43.787Z,99958.63
2022-11-28T00:29:12.127Z,99960.38
2022-11-28T00:31:43.110Z,99956.55
2022-11-28T00:34:15.781Z,99953.31
2022-11-28T00:36:47.140Z,99948.68
2022-11-28T00:39:17.053Z,99949.55
2022-11-28T00:41:45.614Z,99944.43
2022-11-28T00:44:14.307Z,99943.38
2022-11-28T00:46:42.763Z,99936.01
2022-11-28T00:49:11.080Z,99934.40
2022-11-28T00:51:39.576Z,99935.25
2022-11-28T00:54:08.410Z,99922.46
2022-11-28T00:56:39.488Z,99918.55
2022-11-28T00:59:08.200Z,99918.60
2022-11-28T01:01:40.133Z,99915.13
2022-11-28T01:04:10.913Z,99911.34
2022-11-28T01:06:42.550Z,99909.34
2022-11-28T01:09:30.599Z,99909.70
2022-11-28T01:11:58.762Z,99909.78
2022-11-28T01:14:27.068Z,99908.62
2022-11-28T01:16:55.304Z,99901.31
2022-11-28T01:19:23.458Z,99900.15
2022-11-28T01:21:51.609Z,99894.93
2022-11-28T01:24:19.841Z,99895.80
2022-11-28T01:26:48.222Z,99900.65
2022-11-28T01:29:16.645Z,99891.30
2022-11-28T01:31:44.992Z,99887.95
2022-11-28T01:34:13.311Z,99880.50
2022-11-28T01:36:41.529Z,99876.21
2022-11-28T01:39:10.841Z,99875.69
2022-11-28T01:41:40.571Z,99866.50
2022-11-28T01:44:31.992Z,99865.88
2022-11-28T01:47:00.569Z,99868.01
2022-11-28T01:49:35.684Z,99865.43
2022-11-28T01:52:13.361Z,99859.35
2022-11-28T01:54:44.786Z,99853.64
2022-11-28T01:57:16.985Z,99850.11
2022-11-28T01:59:55.904Z,99847.48
2022-11-28T02:03:26.311Z,99847.53
2022-11-28T02:05:54.814Z,99843.98
2022-11-28T02:08:24.839Z,99840.33
2022-11-28T02:11:19.339Z,99839.04
2022-11-28T02:14:01.034Z,99833.68
2022-11-28T02:16:43.980Z,99830.68
2022-11-28T02:19:43.119Z,99832.53
2022-11-28T02:22:28.069Z,99826.67
2022-11-28T02:25:19.149Z,99829.45
2022-11-28T02:27:47.409Z,99829.13
2022-11-28T02:30:47.966Z,99826.70
2022-11-28T02:33:30.218Z,99829.27
2022-11-28T02:36:04.078Z,99830.20
2022-11-28T02:39:00.353Z,99827.73
2022-11-28T02:41:49.926Z,99826.31
2022-11-28T02:44:36.472Z,99825.20
2022-11-28T02:47:18.907Z,99824.02
2022-11-28T02:49:59.368Z,99825.78
2022-11-28T02:52:38.128Z,99824.00
2022-11-28T02:55:07.830Z,99818.40
2022-11-28T02:57:41.213Z,99823.67
2022-11-28T03:00:32.840Z,99819.23
2022-11-28T03:03:05.785Z,99818.63
2022-11-28T03:05:48.501Z,99812.31
2022-11-28T03:08:49.356Z,99813.63
2022-11-28T03:11:30.785Z,99808.55
2022-11-28T03:13:59.005Z,99809.14
2022-11-28T03:16:31.086Z,99804.90
2022-11-28T03:19:05.339Z,99803.23
2022-11-28T03:21:39.185Z,99800.85
2022-11-28T03:24:25.105Z,99801.98
2022-11-28T03:27:22.445Z,99804.91
2022-11-28T03:29:55.980Z,99798.16
2022-11-28T03:32:31.841Z,99796.29
2022-11-28T03:35:06.307Z,99795.29
2022-11-28T03:37:40.065Z,99801.90
2022-11-28T03:40:15.319Z,99801.90
2022-11-28T03:42:49.881Z,99799.73
2022-11-28T03:45:24.454Z,99800.38
2022-11-28T03:48:05.008Z,99799.51
2022-11-28T03:50:43.788Z,99796.64
2022-11-28T03:53:17.798Z,99787.27
2022-11-28T03:55:53.047Z,99783.59
2022-11-28T03:58:43.844Z,99779.85
2022-11-28T04:01:18.975Z,99778.89
2022-11-28T04:03:53.019Z,99777.59
2022-11-28T04:06:34.485Z,99777.89
2022-11-28T04:09:14.705Z,99780.63
2022-11-28T04:11:49.934Z,99773.77
2022-11-28T04:14:21.774Z,99775.56
2022-11-28T04:17:16.346Z,99776.54
2022-11-28T04:20:04.485Z,99775.48
2022-11-28T04:22:40.369Z,99773.94
2022-11-28T04:25:15.100Z,99770.55
2022-11-28T04:28:04.877Z,99776.50
2022-11-28T04:30:34.658Z,99773.60
2022-11-28T04:33:07.935Z,99770.79
2022-11-28T04:35:44.221Z,99767.08
2022-11-28T04:38:13.559Z,99762.52
2022-11-28T04:40:53.678Z,99760.45
2022-11-28T04:43:28.206Z,99759.11
2022-11-28T04:46:01.731Z,99757.35
2022-11-28T04:48:34.218Z,99757.13
2022-11-28T04:51:41.465Z,99757.73
2022-11-28T04:54:24.787Z,99756.20
2022-11-28T04:56:59.719Z,99756.42
2022-11-28T04:59:31.508Z,99756.52
2022-11-28T05:02:04.481Z,99751.50
2022-11-28T05:04:35.817Z,99750.59
2022-11-28T05:07:08.741Z,99752.89
2022-11-28T05:09:37.250Z,99757.03
2022-11-28T05:12:06.696Z,99754.39
2022-11-28T05:14:34.847Z,99751.70
2022-11-28T05:17:03.416Z,99754.20
2022-11-28T05:19:32.182Z,99755.66
2022-11-28T05:22:00.258Z,99753.38
2022-11-28T05:24:32.248Z,99749.13
2022-11-28T05:27:01.353Z,99747.67
2022-11-28T05:29:29.706Z,99748.76
2022-11-28T05:32:00.928Z,99744.73
2022-11-28T05:34:30.430Z,99741.33
2022-11-28T05:36:58.653Z,99741.20
2022-11-28T05:39:27.086Z,99741.90
2022-11-28T05:41:56.485Z,99741.40
2022-11-28T05:44:26.990Z,99740.59
2022-11-28T05:46:55.574Z,99741.50
2022-11-28T05:49:28.483Z,99741.34
2022-11-28T05:51:56.731Z,99738.84
2022-11-28T05:54:25.295Z,99736.96
2022-11-28T05:56:53.451Z,99737.48
2022-11-28T05:59:21.650Z,99738.01
2022-11-28T06:01:49.959Z,99737.81
2022-11-28T06:04:18.283Z,99735.04
2022-11-28T06:06:46.506Z,99734.95
2022-11-28T06:09:15.006Z,99733.76
2022-11-28T06:11:43.271Z,99734.15
2022-11-28T06:14:12.077Z,99730.85
2022-11-28T06:16:41.641Z,99732.58
2022-11-28T06:19:12.918Z,99735.73
2022-11-28T06:21:41.644Z,99736.06
2022-11-28T06:24:10.961Z,99735.17
2022-11-28T06:26:39.243Z,99736.64
2022-11-28T06:29:07.639Z,99736.14
2022-11-28T06:31:35.819Z,99739.79
2022-11-28T06:34:03.986Z,99740.73
2022-11-28T06:36:32.460Z,99737.31
2022-11-28T06:39:00.741Z,99737.23
2022-11-28T06:41:30.147Z,99737.91
2022-11-28T06:43:58.561Z,99738.48
2022-11-28T06:46:26.843Z,99734.23
2022-11-28T06:48:55.095Z,99736.66
2022-11-28T06:51:23.611Z,99737.45
2022-11-28T06:53:51.894Z,99738.17
2022-11-28T06:56:20.596Z,99740.63
2022-11-28T06:58:57.730Z,99741.87
2022-11-28T07:01:31.400Z,99737.70
2022-11-28T07:04:00.178Z,99737.45
2022-11-28T07:06:28.540Z,99738.48
2022-11-28T07:08:58.427Z,99737.38
2022-11-28T07:11:29.238Z,99741.21
2022-11-28T07:14:00.650Z,99734.64
2022-11-28T07:16:31.668Z,99736.17
2022-11-28T07:19:00.508Z,99734.42
2022-11-28T07:21:29.719Z,99734.04
2022-11-28T07:23:59.619Z,99728.66
2022-11-28T07:26:27.884Z,99726.66
2022-11-28T07:28:58.521Z,99723.52
2022-11-28T07:31:31.910Z,99725.08
2022-11-28T07:34:03.521Z,99725.46
2022-11-28T07:36:32.683Z,99725.38
2022-11-28T07:39:05.975Z,99723.99
2022-11-28T07:41:34.549Z,99721.92
2022-11-28T07:44:04.827Z,99723.21
2022-11-28T07:46:34.386Z,99721.25
2022-11-28T07:49:04.385Z,99722.88
2022-11-28T07:51:33.906Z,99716.00
2022-11-28T07:54:04.870Z,99715.13
2022-11-28T07:57:04.551Z,99714.46
2022-11-28T07:59:25.068Z,99712.95
2022-11-28T08:01:54.095Z,99709.66
2022-11-28T08:04:23.050Z,99712.55
2022-11-28T08:06:51.411Z,99715.48
2022-11-28T08:09:19.862Z,99718.77
2022-11-28T08:11:48.085Z,99715.14
2022-11-28T08:14:16.354Z,99711.70
2022-11-28T08:16:47.544Z,99707.94
2022-11-28T08:19:15.831Z,99712.63
2022-11-28T08:21:44.051Z,99704.71
2022-11-28T08:24:12.484Z,99706.79
2022-11-28T08:26:40.746Z,99706.59
2022-11-28T08:29:10.314Z,99702.34
2022-11-28T08:31:39.959Z,99703.41
2022-11-28T08:34:10.747Z,99699.85
2022-11-28T08:36:39.654Z,99703.02
2022-11-28T08:39:24.822Z,99706.39
2022-11-28T08:41:57.823Z,99700.41
2022-11-28T08:44:27.521Z,99700.27
2022-11-28T08:46:56.090Z,99699.79
2022-11-28T08:49:24.309Z,99703.66
2022-11-28T08:51:52.482Z,99699.14
2022-11-28T08:54:21.037Z,99698.73
2022-11-28T08:56:49.258Z,99700.45
2022-11-28T08:59:17.337Z,99695.48
2022-11-28T09:01:45.695Z,99693.47
2022-11-28T09:04:14.222Z,99691.66
2022-11-28T09:06:42.478Z,99691.27
2022-11-28T09:09:10.797Z,99687.63
2022-11-28T09:11:39.132Z,99686.42
2022-11-28T09:14:07.716Z,99682.15
2022-11-28T09:16:37.565Z,99681.58
2022-11-28T09:19:07.152Z,99677.85
2022-11-28T09:21:35.763Z,99678.15
2022-11-28T09:24:04.224Z,99673.34
2022-11-28T09:26:33.607Z,99671.23
2022-11-28T09:29:01.794Z,99670.15
2022-11-28T09:31:30.767Z,99666.59
2022-11-28T09:33:59.143Z,99668.49
2022-11-28T09:36:28.650Z,99663.50
2022-11-28T09:39:00.218Z,99661.87
2022-11-28T09:41:28.434Z,99662.38
2022-11-28T09:44:07.726Z,99661.08
2022-11-28T09:46:38.521Z,99661.52
2022-11-28T09:49:23.717Z,99652.95
2022-11-28T09:52:03.328Z,99652.04
2022-11-28T09:54:48.346Z,99650.35
2022-11-28T09:57:26.164Z,99654.60
2022-11-28T09:59:54.632Z,99651.02
2022-11-28T10:02:43.775Z,99650.67
2022-11-28T10:05:34.562Z,99640.70
2022-11-28T10:08:12.005Z,99630.75
2022-11-28T10:10:49.105Z,99627.14
2022-11-28T10:13:24.393Z,99625.45
2022-11-28T10:16:06.078Z,99619.23
2022-11-28T10:18:47.537Z,99619.17
2022-11-28T10:21:45.407Z,99620.78
2022-11-28T10:24:21.134Z,99618.85
2022-11-28T10:26:59.164Z,99616.13
2022-11-28T10:29:39.387Z,99613.25
2022-11-28T10:32:16.976Z,99612.65
2022-11-28T10:34:53.238Z,99609.11
2022-11-28T10:37:34.150Z,99613.85
2022-11-28T10:40:24.817Z,99610.70
2022-11-28T10:43:16.643Z,99607.85
2022-11-28T10:46:30.212Z,99606.23
2022-11-28T10:49:24.601Z,99605.06
2022-11-28T10:52:08.958Z,99603.17
2022-11-28T10:54:42.834Z,99606.63
2022-11-28T10:57:25.959Z,99603.34
2022-11-28T11:00:02.212Z,99605.71
2022-11-28T11:02:41.234Z,99602.15
2022-11-28T11:05:17.120Z,99602.31
2022-11-28T11:07:52.105Z,99601.08
2022-11-28T11:10:30.146Z,99598.96
2022-11-28T11:12:58.825Z,99598.80
2022-11-28T11:15:33.045Z,99596.10
2022-11-28T11:18:05.329Z,99592.86
2022-11-28T11:20:37.286Z,99590.96
2022-11-28T11:23:18.818Z,99590.48
2022-11-28T11:25:55.504Z,99587.21
2022-11-28T11:28:40.409Z,99593.55
2022-11-28T11:31:30.175Z,99596.42
2022-11-28T11:34:05.731Z,99594.70
2022-11-28T11:36:36.447Z,99593.48
2022-11-28T11:39:20.083Z,99592.57
2022-11-28T11:41:51.172Z,99590.52
2022-11-28T11:44:20.568Z,99587.41
2022-11-28T11:46:52.781Z,99583.86
2022-11-28T11:49:39.520Z,99583.13
2022-11-28T11:52:07.761Z,99585.00
2022-11-28T11:54:36.282Z,99581.88
2022-11-28T11:57:31.254Z,99583.20
2022-11-28T11:59:59.048Z,99581.02
2022-11-28T12:02:27.303Z,99578.51
2022-11-28T12:05:04.528Z,99572.10
2022-11-28T12:07:48.952Z,99568.08
2022-11-28T12:10:21.592Z,99565.08
2022-11-28T12:12:50.659Z,99560.96
2022-11-28T12:15:38.389Z,99561.16
2022-11-28T12:18:18.306Z,99559.30
2022-11-28T12:21:22.475Z,99554.06
2022-11-28T12:24:17.806Z,99558.25
2022-11-28T12:27:04.463Z,99556.92
2022-11-28T12:29:53.958Z,99556.64
2022-11-28T12:32:37.566Z,99555.88
2022-11-28T12:35:25.496Z,99555.75
2022-11-28T12:38:11.555Z,99555.67
2022-11-28T12:41:07.172Z,99554.05
2022-11-28T12:43:47.631Z,99553.88
2022-11-28T12:46:24.883Z,99552.55
2022-11-28T12:49:20.573Z,99552.35
2022-11-28T12:52:09.291Z,99550.95
2022-11-28T12:54:50.656Z,99549.11
2022-11-28T12:57:33.405Z,99548.30
2022-11-28T13:00:09.267Z,99549.73
2022-11-28T13:02:45.298Z,99548.31
2022-11-28T13:05:25.975Z,99549.55
2022-11-28T13:08:20.520Z,99546.11
2022-11-28T13:10:56.980Z,99546.45
2022-11-28T13:13:32.725Z,99542.46
2022-11-28T13:16:27.023Z,99540.15
2022-11-28T13:19:29.381Z,99541.43
2022-11-28T13:22:10.050Z,99540.97
2022-11-28T13:25:00.891Z,99538.09
2022-11-28T13:27:51.649Z,99537.36
2022-11-28T13:30:25.339Z,99536.33
2022-11-28T13:33:22.727Z,99534.67
2022-11-28T13:35:52.341Z,99531.69
2022-11-28T13:39:11.851Z,99530.26
2022-11-28T13:42:43.850Z,99529.72
2022-11-28T13:44:53.108Z,99528.83
2022-11-28T13:47:21.247Z,99532.89
2022-11-28T13:49:49.796Z,99528.70
2022-11-28T13:52:17.961Z,99532.77
2022-11-28T13:54:52.981Z,99529.27
2022-11-28T13:57:30.115Z,99532.27
2022-11-28T14:00:21.670Z,99533.13
2022-11-28T14:02:54.756Z,99532.52
2022-11-28T14:05:38.501Z,99530.27
2022-11-28T14:08:26.258Z,99535.23
2022-11-28T14:11:27.422Z,99531.52
2022-11-28T14:14:13.220Z,99526.77
2022-11-28T14:16:52.029Z,99524.35
2022-11-28T14:19:48.354Z,99523.71
2022-11-28T14:22:51.674Z,99524.89
2022-11-28T14:25:28.774Z,99526.34
2022-11-28T14:28:03.709Z,99519.86
2022-11-28T14:30:37.631Z,99522.00
2022-11-28T14:33:16.249Z,99523.09
2022-11-28T14:35:50.860Z,99525.23
2022-11-28T14:38:45.812Z,99525.29
2022-11-28T14:41:19.724Z,99525.09
2022-11-28T14:43:48.717Z,99521.98
2022-11-28T14:46:27.056Z,99524.88
2022-11-28T14:48:58.918Z,99525.90
2022-11-28T14:51:49.267Z,99526.39
2022-11-28T14:54:35.546Z,99527.71
2022-11-28T14:57:22.926Z,99533.02
2022-11-28T14:59:52.496Z,99531.05
2022-11-28T15:02:36.555Z,99529.56
2022-11-28T15:05:20.111Z,99529.98
2022-11-28T15:08:20.603Z,99529.16
2022-11-28T15:11:23.655Z,99530.27
2022-11-28T15:14:01.247Z,99529.72
2022-11-28T15:16:32.010Z,99528.02
2022-11-28T15:19:08.640Z,99529.77
2022-11-28T15:21:45.902Z,99527.52
2022-11-28T15:24:32.233Z,99528.17
2022-11-28T15:27:06.457Z,99526.08
2022-11-28T15:29:37.107Z,99530.47
2022-11-28T15:32:07.039Z,99526.80
2022-11-28T15:34:38.629Z,99522.84
2022-11-28T15:37:17.016Z,99527.15
2022-11-28T15:39:49.790Z,99527.95
2022-11-28T15:42:38.964Z,99526.76
2022-11-28T15:45:22.993Z,99523.09
2022-11-28T15:47:53.109Z,99522.08
2022-11-28T15:50:27.482Z,99520.25
2022-11-28T15:52:58.357Z,99519.27
2022-11-28T15:55:30.769Z,99520.77
2022-11-28T15:58:20.054Z,99517.10
2022-11-28T16:00:54.937Z,99520.14
2022-11-28T16:03:26.446Z,99514.08
2022-11-28T16:05:56.371Z,99514.31
2022-11-28T16:08:31.313Z,99513.64
2022-11-28T16:11:03.210Z,99520.00
2022-11-28T16:13:32.497Z,99516.27
2022-11-28T16:16:04.287Z,99519.71
2022-11-28T16:18:33.933Z,99520.58
2022-11-28T16:21:02.488Z,99518.16
2022-11-28T16:23:35.450Z,99522.90
2022-11-28T16:26:07.443Z,99521.52
2022-11-28T16:28:39.037Z,99524.60
2022-11-28T16:31:11.833Z,99524.02
2022-11-28T16:33:44.959Z,99526.78
2022-11-28T16:36:16.315Z,99527.35
2022-11-28T16:38:45.370Z,99522.33
2022-11-28T16:41:30.609Z,99522.57
2022-11-28T16:44:08.214Z,99524.69
2022-11-28T16:46:39.972Z,99528.05
2022-11-28T16:49:39.373Z,99523.69
2022-11-28T16:52:24.247Z,99525.02
2022-11-28T16:54:56.578Z,99527.77
2022-11-28T16:57:28.881Z,99531.16
2022-11-28T17:00:01.264Z,99531.92
2022-11-28T17:02:29.523Z,99534.52
2022-11-28T17:04:58.044Z,99535.57
2022-11-28T17:07:26.546Z,99534.98
2022-11-28T17:09:54.839Z,99540.52
2022-11-28T17:12:25.998Z,99541.98
2022-11-28T17:14:56.060Z,99541.34
2022-11-28T17:17:24.771Z,99540.59
2022-11-28T17:19:52.849Z,99538.41
2022-11-28T17:22:24.878Z,99544.54
2022-11-28T17:24:59.930Z,99539.50
2022-11-28T17:27:28.247Z,99541.94
2022-11-28T17:29:56.348Z,99545.96
2022-11-28T17:32:27.281Z,99552.65
2022-11-28T17:34:55.612Z,99554.77
2022-11-28T17:37:23.864Z,99556.13
2022-11-28T17:40:10.326Z,99553.39
2022-11-28T17:42:39.009Z,99555.32
2022-11-28T17:45:15.204Z,99553.25
2022-11-28T17:47:45.762Z,99551.42
2022-11-28T17:50:14.812Z,99549.14
2022-11-28T17:52:43.404Z,99546.73
2022-11-28T17:55:12.081Z,99546.48
2022-11-28T17:57:40.188Z,99544.46
2022-11-28T18:00:09.476Z,99545.39
2022-11-28T18:02:46.576Z,99546.95
2022-11-28T18:05:15.527Z,99545.15
2022-11-28T18:07:43.656Z,99545.48
2022-11-28T18:10:12.942Z,99549.91
2022-11-28T18:12:41.124Z,99544.01
2022-11-28T18:15:10.678Z,99542.48
2022-11-28T18:17:38.924Z,99540.86
2022-11-28T18:20:07.654Z,99544.05
2022-11-28T18:22:35.901Z,99541.54
2022-11-28T18:25:05.145Z,99542.16
2022-11-28T18:27:34.887Z,99544.90
2022-11-28T18:30:04.943Z,99547.55
2022-11-28T18:32:33.622Z,99549.79
2022-11-28T18:35:01.735Z,99546.98
2022-11-28T18:37:30.660Z,99548.10
2022-11-28T18:39:59.707Z,99552.14
2022-11-28T18:42:28.071Z,99549.31
2022-11-28T18:44:56.190Z,99547.71
2022-11-28T18:47:26.175Z,99546.96
2022-11-28T18:49:54.755Z,99548.23
2022-11-28T18:52:22.963Z,99549.49
2022-11-28T18:54:51.832Z,99547.45
2022-11-28T18:57:20.270Z,99550.31
2022-11-28T18:59:54.799Z,99547.77
2022-11-28T19:02:24.203Z,99550.20
2022-11-28T19:04:53.312Z,99552.92
2022-11-28T19:07:22.260Z,99550.98
2022-11-28T19:09:57.131Z,99552.02
2022-11-28T19:12:25.457Z,99548.20
2022-11-28T19:14:58.767Z,99552.14
2022-11-28T19:17:30.247Z,99554.20
2022-11-28T19:19:58.511Z,99552.40
2022-11-28T19:22:26.574Z,99551.73
2022-11-28T19:24:54.747Z,99550.10
2022-11-28T19:27:23.094Z,99550.52
2022-11-28T19:29:51.318Z,99546.61
2022-11-28T19:32:19.396Z,99542.10
2022-11-28T19:34:52.271Z,99543.91
2022-11-28T19:37:20.665Z,99542.16
2022-11-28T19:39:49.077Z,99540.27
2022-11-28T19:42:17.962Z,99539.66
2022-11-28T19:44:46.366Z,99537.76
2022-11-28T19:47:14.694Z,99533.77
2022-11-28T19:49:43.814Z,99535.19
2022-11-28T19:52:12.255Z,99532.56
2022-11-28T19:54:40.823Z,99532.64
2022-11-28T19:57:11.325Z,99532.97
2022-11-28T19:59:39.658Z,99537.75
2022-11-28T20:02:09.471Z,99535.81
2022-11-28T20:04:39.070Z,99537.23
2022-11-28T20:07:07.442Z,99539.12
2022-11-28T20:09:35.815Z,99540.27
2022-11-28T20:12:06.984Z,99540.23
2022-11-28T20:14:35.628Z,99542.29
2022-11-28T20:17:05.067Z,99539.34
2022-11-28T20:19:33.974Z,99537.98
2022-11-28T20:22:02.578Z,99537.89
2022-11-28T20:24:31.514Z,99536.25
2022-11-28T20:26:59.650Z,99538.79
2022-11-28T20:29:28.809Z,99540.70
2022-11-28T20:31:58.188Z,99539.52
2022-11-28T20:34:27.610Z,99541.00
2022-11-28T20:36:56.017Z,99540.07
2022-11-28T20:39:25.703Z,99539.48
2022-11-28T20:41:53.749Z,99540.24
2022-11-28T20:44:21.994Z,99544.77
2022-11-28T20:46:50.248Z,99541.40
2022-11-28T20:49:18.824Z,99544.54
2022-11-28T20:51:47.682Z,99542.65
2022-11-28T20:54:17.081Z,99547.39
2022-11-28T20:57:19.764Z,99545.36
2022-11-28T20:59:33.922Z,99547.91
2022-11-28T21:02:02.177Z,99543.52
2022-11-28T21:04:31.541Z,99545.81
2022-11-28T21:07:00.141Z,99547.02
2022-11-28T21:09:28.250Z,99546.27
2022-11-28T21:11:58.625Z,99543.92
2022-11-28T21:14:30.864Z,99544.21
2022-11-28T21:16:59.633Z,99548.06
2022-11-28T21:19:27.969Z,99546.06
2022-11-28T21:21:56.290Z,99545.14
2022-11-28T21:24:24.476Z,99548.30
2022-11-28T21:26:55.146Z,99547.47
2022-11-28T21:29:25.458Z,99549.14
2022-11-28T21:31:54.257Z,99552.14
2022-11-28T21:34:22.946Z,99547.41
2022-11-28T21:36:51.501Z,99550.31
2022-11-28T21:39:20.797Z,99552.12
2022-11-28T21:41:51.092Z,99545.77
2022-11-28T21:44:20.161Z,99547.34
2022-11-28T21:46:48.475Z,99548.30
2022-11-28T21:49:17.881Z,99547.85
2022-11-28T21:51:46.234Z,99548.29
2022-11-28T21:54:16.527Z,99548.09
2022-11-28T21:56:46.075Z,99547.31
2022-11-28T21:59:14.686Z,99549.90
2022-11-28T22:01:42.958Z,99551.30
2022-11-28T22:04:11.324Z,99549.80
2022-11-28T22:06:40.504Z,99553.06
2022-11-28T22:09:09.921Z,99550.73
2022-11-28T22:11:39.782Z,99547.86
2022-11-28T22:14:08.184Z,99547.02
2022-11-28T22:16:36.916Z,99552.02
2022-11-28T22:19:05.775Z,99550.71
2022-11-28T22:21:53.427Z,99550.36
2022-11-28T22:24:23.474Z,99548.52
2022-11-28T22:26:52.899Z,99549.84
2022-11-28T22:29:21.016Z,99551.30
2022-11-28T22:31:50.503Z,99552.21
2022-11-28T22:34:19.706Z,99550.83
2022-11-28T22:36:47.782Z,99550.55
2022-11-28T22:39:16.429Z,99549.61
2022-11-28T22:41:44.963Z,99549.95
2022-11-28T22:44:14.233Z,99549.48
2022-11-28T22:46:45.116Z,99556.18
2022-11-28T22:49:13.886Z,99552.05
2022-11-28T22:51:42.278Z,99556.14
2022-11-28T22:54:12.903Z,99552.98
2022-11-28T22:56:41.378Z,99551.98
2022-11-28T22:59:13.156Z,99554.65
2022-11-28T23:01:45.128Z,99557.64
2022-11-28T23:04:13.787Z,99557.98
2022-11-28T23:06:42.900Z,99558.45
2022-11-28T23:09:13.454Z,99556.77
2022-11-28T23:11:43.807Z,99552.46
2022-11-28T23:14:16.406Z,99555.17
2022-11-28T23:16:46.678Z,99556.56
2022-11-28T23:19:17.251Z,99556.14
2022-11-28T23:21:48.465Z,99556.36
2022-11-28T23:24:20.825Z,99556.29
2022-11-28T23:26:51.129Z,99551.33
2022-11-28T23:29:20.204Z,99552.47
2022-11-28T23:31:50.294Z,99552.14
2022-11-28T23:34:18.524Z,99552.47
2022-11-28T23:36:47.141Z,99546.44
2022-11-28T23:39:18.234Z,99546.56
2022-11-28T23:41:46.661Z,99544.40
2022-11-28T23:44:16.222Z,99544.33
2022-11-28T23:46:45.162Z,99544.33
2022-11-28T23:49:13.522Z,99543.04
2022-11-28T23:51:42.073Z,99541.69
2022-11-28T23:54:11.819Z,99540.04
2022-11-28T23:56:40.977Z,99539.43
2022-11-28T23:59:11.669Z,99540.02
